createdAt,value
2023-01-09T00:02:40.792Z,7.91
2023-01-09T00:05:42.623Z,7.90
2023-01-09T00:08:44.359Z,7.95
2023-01-09T00:11:46.078Z,7.80
2023-01-09T00:14:47.740Z,7.76
2023-01-09T00:17:49.996Z,7.73
2023-01-09T00:20:51.831Z,7.70
2023-01-09T00:23:54.414Z,7.73
2023-01-09T00:26:56.055Z,7.67
2023-01-09T00:29:57.780Z,7.71
2023-01-09T00:32:59.791Z,7.69
2023-01-09T00:36:02.393Z,7.58
2023-01-09T00:39:05.063Z,7.52
2023-01-09T00:42:10.174Z,7.49
2023-01-09T00:45:20.256Z,7.45
2023-01-09T00:48:27.138Z,7.34
2023-01-09T00:51:29.008Z,7.30
2023-01-09T00:54:31.988Z,7.27
2023-01-09T00:57:33.706Z,7.21
2023-01-09T01:00:35.414Z,7.12
2023-01-09T01:03:37.117Z,7.02
2023-01-09T01:06:57.565Z,6.93
2023-01-09T01:09:59.230Z,6.91
2023-01-09T01:13:00.929Z,6.89
2023-01-09T01:16:07.913Z,6.82
2023-01-09T01:19:09.568Z,6.77
2023-01-09T01:22:11.435Z,6.80
2023-01-09T01:25:17.002Z,6.80
2023-01-09T01:28:19.338Z,6.74
2023-01-09T01:31:21.059Z,6.76
2023-01-09T01:34:22.774Z,6.67
2023-01-09T01:37:24.755Z,6.63
2023-01-09T01:40:26.666Z,6.58
2023-01-09T01:43:29.386Z,6.68
2023-01-09T01:46:33.321Z,6.60
2023-01-09T01:49:35.019Z,6.58
2023-01-09T01:52:37.821Z,6.56
2023-01-09T01:55:45.023Z,6.54
2023-01-09T01:59:12.081Z,6.54
2023-01-09T02:02:13.815Z,6.65
2023-01-09T02:05:16.024Z,6.67
2023-01-09T02:08:18.332Z,6.58
2023-01-09T02:11:20.773Z,6.55
2023-01-09T02:14:27.922Z,6.56
2023-01-09T02:17:32.357Z,6.61
2023-01-09T02:20:52.318Z,6.57
2023-01-09T02:24:03.320Z,6.47
2023-01-09T02:27:45.260Z,6.47
2023-01-09T02:30:51.945Z,6.48
2023-01-09T02:34:12.026Z,6.49
2023-01-09T02:37:41.851Z,6.53
2023-01-09T02:41:24.044Z,6.56
2023-01-09T02:44:30.561Z,6.40
2023-01-09T02:47:37.069Z,6.34
2023-01-09T02:50:51.249Z,6.33
2023-01-09T02:54:05.063Z,6.25
2023-01-09T02:57:37.219Z,6.23
2023-01-09T03:00:47.920Z,6.16
2023-01-09T03:03:58.335Z,6.15
2023-01-09T03:07:13.872Z,6.12
2023-01-09T03:10:21.292Z,6.08
2023-01-09T03:13:26.599Z,6.05
2023-01-09T03:16:34.200Z,6.08
2023-01-09T03:19:37.419Z,6.05
2023-01-09T03:22:40.691Z,6.00
2023-01-09T03:25:42.401Z,6.01
2023-01-09T03:28:44.803Z,5.98
2023-01-09T03:31:46.491Z,5.92
2023-01-09T03:34:48.181Z,5.92
2023-01-09T03:37:51.724Z,5.89
2023-01-09T03:40:53.423Z,5.92
2023-01-09T03:43:55.129Z,5.87
2023-01-09T03:46:56.782Z,6.01
2023-01-09T03:49:58.471Z,5.94
2023-01-09T03:53:00.172Z,5.93
2023-01-09T03:56:01.885Z,5.87
2023-01-09T03:59:03.574Z,5.88
2023-01-09T04:02:05.388Z,5.83
2023-01-09T04:05:07.940Z,5.85
2023-01-09T04:08:09.677Z,5.83
2023-01-09T04:11:11.397Z,5.83
2023-01-09T04:14:13.077Z,5.92
2023-01-09T04:17:16.745Z,5.89
2023-01-09T04:20:18.941Z,5.88
2023-01-09T04:23:21.034Z,5.82
2023-01-09T04:26:22.730Z,5.79
2023-01-09T04:29:27.342Z,5.83
2023-01-09T04:32:29.066Z,5.83
2023-01-09T04:35:30.737Z,5.81
2023-01-09T04:38:32.546Z,5.76
2023-01-09T04:41:49.394Z,5.77
2023-01-09T04:44:54.234Z,5.77
2023-01-09T04:47:55.917Z,5.77
2023-01-09T04:50:57.571Z,5.75
2023-01-09T04:53:59.306Z,5.78
2023-01-09T04:57:01.033Z,5.77
2023-01-09T05:00:05.237Z,5.77
2023-01-09T05:03:06.902Z,5.72
2023-01-09T05:06:08.576Z,5.74
2023-01-09T05:09:10.258Z,5.74
2023-01-09T05:12:11.945Z,5.66
2023-01-09T05:15:13.664Z,5.71
2023-01-09T05:18:15.809Z,5.66
2023-01-09T05:21:17.475Z,5.68
2023-01-09T05:24:19.202Z,5.66
2023-01-09T05:27:20.880Z,5.71
2023-01-09T05:30:22.600Z,5.67
2023-01-09T05:33:24.361Z,5.67
2023-01-09T05:36:26.540Z,5.72
2023-01-09T05:39:28.275Z,5.64
2023-01-09T05:42:29.944Z,5.67
2023-01-09T05:45:31.715Z,5.64
2023-01-09T05:48:33.446Z,5.59
2023-01-09T05:51:35.217Z,5.56
2023-01-09T05:54:36.887Z,5.53
2023-01-09T05:57:38.565Z,5.56
2023-01-09T06:00:40.227Z,5.63
2023-01-09T06:03:42.466Z,5.55
2023-01-09T06:06:44.122Z,5.65
2023-01-09T06:09:45.763Z,5.56
2023-01-09T06:16:08.949Z,5.54
2023-01-09T06:19:10.815Z,5.66
2023-01-09T06:22:12.479Z,5.54
2023-01-09T06:25:14.147Z,5.62
2023-01-09T06:28:15.841Z,5.47
2023-01-09T06:31:17.716Z,5.44
2023-01-09T06:34:19.500Z,5.45
2023-01-09T06:37:21.164Z,5.46
2023-01-09T06:40:22.820Z,5.51
2023-01-09T06:43:24.503Z,5.53
2023-01-09T06:46:26.382Z,5.54
2023-01-09T06:49:28.030Z,5.50
2023-01-09T06:52:29.682Z,5.53
2023-01-09T06:55:31.391Z,5.48
2023-01-09T06:58:33.066Z,5.47
2023-01-09T07:01:34.883Z,5.49
2023-01-09T07:04:36.708Z,5.50
2023-01-09T07:07:41.467Z,5.50
2023-01-09T07:10:43.837Z,5.71
2023-01-09T07:13:45.500Z,5.70
2023-01-09T07:16:47.194Z,5.53
2023-01-09T07:19:48.863Z,5.54
2023-01-09T07:22:50.530Z,5.49
2023-01-09T07:25:52.545Z,5.44
2023-01-09T07:28:54.714Z,5.44
2023-01-09T07:31:56.894Z,5.45
2023-01-09T07:34:58.951Z,5.45
2023-01-09T07:38:00.631Z,5.46
2023-01-09T07:41:02.273Z,5.54
2023-01-09T07:44:04.075Z,5.54
2023-01-09T07:47:05.774Z,5.51
2023-01-09T07:50:08.951Z,5.52
2023-01-09T07:53:10.634Z,5.51
2023-01-09T07:56:12.373Z,5.50
2023-01-09T07:59:14.352Z,5.43
2023-01-09T08:02:18.191Z,5.59
2023-01-09T08:05:20.677Z,5.82
2023-01-09T08:08:23.284Z,5.88
2023-01-09T08:11:25.491Z,5.98
2023-01-09T08:14:27.220Z,5.88
2023-01-09T08:17:28.852Z,5.74
2023-01-09T08:20:30.597Z,6.03
2023-01-09T08:23:32.582Z,5.81
2023-01-09T08:26:34.239Z,6.00
2023-01-09T08:29:35.906Z,6.28
2023-01-09T08:32:37.889Z,6.14
2023-01-09T08:35:39.551Z,6.10
2023-01-09T08:38:41.212Z,6.00
2023-01-09T08:42:01.373Z,6.20
2023-01-09T08:45:21.663Z,6.15
2023-01-09T08:48:23.396Z,6.21
2023-01-09T08:51:25.051Z,6.47
2023-01-09T08:54:26.774Z,6.20
2023-01-09T08:57:28.484Z,6.16
2023-01-09T09:00:30.208Z,6.27
2023-01-09T09:03:31.887Z,6.29
2023-01-09T09:06:34.489Z,6.58
2023-01-09T09:09:36.135Z,6.52
2023-01-09T09:12:37.802Z,6.79
2023-01-09T09:15:39.510Z,6.58
2023-01-09T09:18:41.177Z,6.69
2023-01-09T09:21:42.873Z,6.72
2023-01-09T09:24:44.573Z,6.53
2023-01-09T09:27:46.595Z,6.30
2023-01-09T09:30:48.278Z,6.41
2023-01-09T09:33:50.054Z,6.58
2023-01-09T09:36:51.892Z,6.52
2023-01-09T09:39:53.690Z,6.50
2023-01-09T09:43:29.088Z,6.46
2023-01-09T09:46:41.917Z,6.46
2023-01-09T09:50:02.082Z,6.32
2023-01-09T09:53:11.673Z,6.26
2023-01-09T09:56:17.098Z,6.12
2023-01-09T09:59:26.731Z,6.07
2023-01-09T10:02:57.250Z,6.05
2023-01-09T10:06:00.556Z,5.83
2023-01-09T10:09:28.952Z,5.64
2023-01-09T10:12:32.112Z,5.46
2023-01-09T10:15:41.876Z,5.41
2023-01-09T10:18:49.275Z,5.29
2023-01-09T10:21:56.815Z,5.34
2023-01-09T10:25:01.437Z,5.40
2023-01-09T10:28:40.541Z,5.34
2023-01-09T10:31:54.378Z,5.39
2023-01-09T10:35:14.143Z,5.50
2023-01-09T10:38:25.620Z,5.66
2023-01-09T10:42:06.443Z,5.62
2023-01-09T10:45:17.900Z,5.45
2023-01-09T10:48:44.196Z,5.29
2023-01-09T10:52:02.495Z,5.21
2023-01-09T10:55:17.155Z,5.16
2023-01-09T10:58:22.003Z,5.19
2023-01-09T11:01:31.032Z,5.29
2023-01-09T11:04:36.255Z,5.23
2023-01-09T11:07:42.123Z,5.11
2023-01-09T11:10:47.377Z,4.97
2023-01-09T11:14:04.736Z,4.99
2023-01-09T11:17:06.435Z,4.88
2023-01-09T11:20:23.409Z,4.85
2023-01-09T11:23:34.254Z,5.02
2023-01-09T11:26:35.897Z,4.97
2023-01-09T11:29:37.836Z,4.95
2023-01-09T11:32:39.691Z,4.92
2023-01-09T11:35:51.172Z,4.91
2023-01-09T11:38:55.807Z,4.95
2023-01-09T11:42:00.130Z,4.93
2023-01-09T11:45:01.865Z,4.96
2023-01-09T11:48:16.701Z,4.90
2023-01-09T11:51:27.034Z,4.87
2023-01-09T11:54:32.500Z,4.84
2023-01-09T11:57:34.682Z,4.75
2023-01-09T12:00:51.596Z,4.65
2023-01-09T12:03:53.184Z,4.58
2023-01-09T12:07:00.783Z,4.62
2023-01-09T12:10:05.373Z,4.65
2023-01-09T12:13:15.790Z,4.72
2023-01-09T12:16:39.343Z,4.67
2023-01-09T12:19:59.516Z,4.71
2023-01-09T12:23:13.131Z,4.83
2023-01-09T12:26:36.546Z,4.76
2023-01-09T12:29:59.535Z,4.80
2023-01-09T12:33:12.093Z,4.90
2023-01-09T12:36:35.562Z,4.95
2023-01-09T12:40:04.840Z,5.00
2023-01-09T12:43:51.151Z,5.05
2023-01-09T12:47:15.894Z,5.06
2023-01-09T12:50:30.892Z,5.07
2023-01-09T12:53:47.833Z,5.05
2023-01-09T12:57:04.129Z,5.17
2023-01-09T13:00:30.109Z,5.03
2023-01-09T13:03:39.037Z,5.08
2023-01-09T13:06:49.211Z,5.19
2023-01-09T13:10:21.135Z,5.27
2023-01-09T13:13:39.562Z,5.44
2023-01-09T13:16:46.214Z,5.55
2023-01-09T13:19:48.289Z,5.62
2023-01-09T13:22:52.429Z,5.43
2023-01-09T13:25:58.238Z,5.35
2023-01-09T13:29:08.798Z,5.42
2023-01-09T13:32:29.139Z,5.38
2023-01-09T13:35:30.798Z,5.30
2023-01-09T13:38:35.234Z,5.37
2023-01-09T13:42:06.957Z,5.28
2023-01-09T13:45:29.633Z,5.39
2023-01-09T13:48:41.459Z,5.39
2023-01-09T13:51:43.037Z,5.53
2023-01-09T13:54:59.991Z,5.55
2023-01-09T13:58:04.546Z,5.58
2023-01-09T14:01:24.578Z,5.82
2023-01-09T14:04:41.443Z,5.66
2023-01-09T14:07:45.777Z,5.63
2023-01-09T14:10:53.733Z,5.53
2023-01-09T14:14:02.976Z,5.71
2023-01-09T14:17:17.869Z,5.69
2023-01-09T14:20:36.552Z,5.59
2023-01-09T14:24:04.413Z,5.54
2023-01-09T14:27:46.535Z,5.52
2023-01-09T14:30:53.873Z,5.45
2023-01-09T14:34:30.971Z,5.42
2023-01-09T14:37:37.119Z,5.43
2023-01-09T14:40:47.580Z,5.42
2023-01-09T14:44:06.459Z,5.43
2023-01-09T14:47:17.615Z,5.38
2023-01-09T14:50:28.005Z,5.34
2023-01-09T14:53:31.779Z,5.38
2023-01-09T14:56:34.943Z,5.34
2023-01-09T14:59:36.576Z,5.39
2023-01-09T15:02:39.840Z,5.38
2023-01-09T15:05:45.165Z,5.42
2023-01-09T15:08:51.225Z,5.47
2023-01-09T15:11:56.880Z,5.56
2023-01-09T15:15:01.392Z,5.49
2023-01-09T15:18:08.095Z,5.45
2023-01-09T15:21:24.900Z,5.42
2023-01-09T15:24:29.735Z,5.35
2023-01-09T15:27:31.427Z,5.29
2023-01-09T15:30:35.299Z,5.28
2023-01-09T15:33:39.800Z,5.27
2023-01-09T15:36:41.542Z,5.21
2023-01-09T15:39:43.239Z,5.20
2023-01-09T15:43:01.139Z,5.18
2023-01-09T15:46:03.313Z,5.16
2023-01-09T15:49:05.191Z,5.13
2023-01-09T15:52:11.966Z,5.13
2023-01-09T15:55:37.124Z,5.12
2023-01-09T15:58:41.234Z,5.29
2023-01-09T16:01:44.879Z,5.22
2023-01-09T16:04:47.576Z,5.49
2023-01-09T16:07:50.925Z,5.44
2023-01-09T16:10:56.307Z,5.53
2023-01-09T16:14:10.309Z,5.55
2023-01-09T16:17:17.828Z,5.71
2023-01-09T16:20:25.785Z,5.42
2023-01-09T16:23:35.774Z,5.42
2023-01-09T16:26:37.576Z,5.49
2023-01-09T16:29:46.159Z,5.64
2023-01-09T16:32:51.501Z,5.84
2023-01-09T16:35:53.838Z,6.05
2023-01-09T16:38:57.204Z,6.03
2023-01-09T16:42:17.858Z,6.07
2023-01-09T16:45:20.909Z,6.10
2023-01-09T16:48:22.549Z,6.10
2023-01-09T16:51:25.747Z,6.08
2023-01-09T16:54:27.402Z,5.93
2023-01-09T16:57:30.410Z,6.12
2023-01-09T17:00:32.147Z,5.97
2023-01-09T17:03:33.918Z,5.77
2023-01-09T17:06:35.823Z,5.79
2023-01-09T17:09:39.004Z,5.86
2023-01-09T17:12:42.736Z,5.80
2023-01-09T17:15:45.665Z,5.53
2023-01-09T17:18:47.419Z,5.64
2023-01-09T17:21:49.205Z,5.60
2023-01-09T17:25:26.004Z,5.48
2023-01-09T17:28:35.829Z,5.54
2023-01-09T17:31:38.782Z,5.60
2023-01-09T17:34:40.571Z,5.35
2023-01-09T17:37:42.765Z,5.28
2023-01-09T17:40:45.393Z,5.40
2023-01-09T17:43:47.108Z,5.49
2023-01-09T17:46:48.809Z,5.63
2023-01-09T17:49:50.773Z,5.78
2023-01-09T17:52:52.407Z,5.88
2023-01-09T17:55:54.082Z,5.72
2023-01-09T17:58:56.247Z,5.76
2023-01-09T18:01:58.076Z,6.01
2023-01-09T18:05:00.229Z,5.94
2023-01-09T18:08:02.317Z,5.87
2023-01-09T18:11:12.115Z,6.05
2023-01-09T18:14:14.111Z,5.94
2023-01-09T18:17:16.043Z,5.96
2023-01-09T18:20:18.691Z,5.87
2023-01-09T18:23:21.588Z,5.87
2023-01-09T18:26:24.896Z,6.06
2023-01-09T18:29:26.675Z,6.01
2023-01-09T18:32:28.531Z,6.07
2023-01-09T18:35:32.881Z,6.07
2023-01-09T18:38:34.706Z,5.89
2023-01-09T18:41:36.820Z,5.88
2023-01-09T18:44:38.920Z,6.19
2023-01-09T18:47:40.741Z,5.71
2023-01-09T18:50:42.872Z,6.02
2023-01-09T18:53:45.332Z,6.21
2023-01-09T18:56:47.075Z,5.93
2023-01-09T18:59:49.296Z,5.84
2023-01-09T19:02:51.127Z,5.82
2023-01-09T19:05:54.238Z,5.82
2023-01-09T19:08:57.659Z,5.75
2023-01-09T19:12:00.693Z,6.07
2023-01-09T19:15:02.591Z,5.62
2023-01-09T19:18:04.652Z,5.42
2023-01-09T19:21:15.566Z,5.25
2023-01-09T19:24:20.366Z,5.17
2023-01-09T19:27:23.057Z,5.14
2023-01-09T19:30:24.855Z,5.11
2023-01-09T19:33:27.275Z,5.00
2023-01-09T19:36:29.198Z,4.93
2023-01-09T19:39:33.886Z,4.96
2023-01-09T19:42:35.669Z,4.97
2023-01-09T19:45:40.452Z,4.97
2023-01-09T19:48:45.377Z,5.00
2023-01-09T19:51:47.460Z,4.99
2023-01-09T19:54:49.403Z,4.98
2023-01-09T19:57:52.941Z,4.99
2023-01-09T20:00:55.290Z,4.95
2023-01-09T20:04:02.754Z,4.89
2023-01-09T20:07:05.198Z,4.97
2023-01-09T20:10:07.600Z,4.91
2023-01-09T20:13:09.792Z,4.95
2023-01-09T20:16:16.356Z,4.94
2023-01-09T20:19:18.737Z,4.89
2023-01-09T20:22:21.194Z,4.87
2023-01-09T20:25:23.596Z,4.87
2023-01-09T20:28:27.838Z,4.87
2023-01-09T20:31:33.780Z,4.91
2023-01-09T20:34:35.546Z,4.89
2023-01-09T20:37:40.122Z,4.97
2023-01-09T20:40:45.232Z,4.87
2023-01-09T20:43:47.226Z,4.92
2023-01-09T20:46:49.439Z,4.89
2023-01-09T20:49:51.580Z,4.85
2023-01-09T20:52:53.648Z,4.90
2023-01-09T20:56:03.982Z,4.86
2023-01-09T20:59:08.681Z,4.86
2023-01-09T21:02:14.646Z,4.87
2023-01-09T21:05:16.371Z,4.89
2023-01-09T21:08:18.100Z,4.91
2023-01-09T21:11:21.851Z,4.94
2023-01-09T21:14:23.488Z,4.92
2023-01-09T21:17:25.195Z,4.93
2023-01-09T21:20:26.866Z,4.93
2023-01-09T21:23:28.515Z,4.96
2023-01-09T21:26:30.776Z,4.99
2023-01-09T21:29:32.585Z,5.05
2023-01-09T21:32:34.382Z,5.07
2023-01-09T21:35:36.387Z,5.03
2023-01-09T21:38:38.671Z,5.09
2023-01-09T21:41:59.346Z,5.08
2023-01-09T21:45:19.750Z,5.04
2023-01-09T21:48:23.647Z,5.19
2023-01-09T21:51:25.637Z,5.08
2023-01-09T21:54:27.346Z,5.12
2023-01-09T21:57:28.972Z,5.13
2023-01-09T22:00:31.041Z,5.12
2023-01-09T22:03:32.737Z,5.13
2023-01-09T22:06:35.275Z,5.12
2023-01-09T22:09:37.599Z,5.19
2023-01-09T22:12:39.403Z,5.20
2023-01-09T22:15:41.564Z,5.14
2023-01-09T22:18:43.299Z,5.21
2023-01-09T22:21:45.781Z,5.18
2023-01-09T22:24:47.646Z,5.18
2023-01-09T22:27:49.364Z,5.23
2023-01-09T22:30:51.055Z,5.21
2023-01-09T22:33:54.277Z,5.21
2023-01-09T22:36:55.937Z,5.20
2023-01-09T22:39:57.650Z,5.23
2023-01-09T22:42:59.784Z,5.24
2023-01-09T22:46:03.079Z,5.30
2023-01-09T22:49:04.876Z,5.33
2023-01-09T22:52:06.540Z,5.28
2023-01-09T22:55:09.420Z,5.26
2023-01-09T22:58:11.089Z,5.30
2023-01-09T23:01:13.300Z,5.23
2023-01-09T23:04:16.033Z,5.25
2023-01-09T23:07:17.703Z,5.30
2023-01-09T23:10:19.448Z,5.28
2023-01-09T23:13:21.133Z,5.25
2023-01-09T23:16:22.835Z,5.27
2023-01-09T23:19:24.575Z,5.29
2023-01-09T23:22:26.291Z,5.27
2023-01-09T23:25:28.156Z,5.32
2023-01-09T23:28:30.611Z,5.31
2023-01-09T23:31:34.436Z,5.31
2023-01-09T23:34:36.078Z,5.32
2023-01-09T23:37:37.932Z,5.35
2023-01-09T23:40:44.172Z,5.30
2023-01-09T23:43:46.031Z,5.34
2023-01-09T23:46:47.754Z,5.38
2023-01-09T23:49:49.419Z,5.36
2023-01-09T23:52:51.087Z,5.29
2023-01-09T23:55:56.851Z,5.25
2023-01-09T23:58:58.562Z,5.23
